CYNR

METAR CYNR 181800Z AUTO 23010G20KT 9SM FEW160 23/11 A2961 RMK AO2 PRESFR SLP023
METAR
LOCATION
CYNR
DATE - TIME
181800Z
WIND
230 TRUE @ 10 KNOTS GUSTS 20 KNOTS
VISIBILITY
9SM
RUNWAY VISUAL RANGE
NOT REPORTED
WEATHER
CLOUDINESS
FEW160
TEMP / DEWPOINT
23 ºC / 11 ºC
ALTIMETER
29.61 in. Hg
RECENT WEATHER
NOT REPORTED
WIND SHEAR
NOT REPORTED
REMARKS
RMK AO2 PRESFR SLP023
SEA LEVEL PRESSURE: hPa

CYNR

METAR CYNR 181700Z AUTO 23012KT 9SM OVC150 20/10 A2963 RMK AO2 SLP031
METAR
LOCATION
CYNR
DATE - TIME
181700Z
WIND
230 TRUE @ 12 KNOTS
VISIBILITY
9SM
RUNWAY VISUAL RANGE
NOT REPORTED
WEATHER
CLOUDINESS
OVC150
TEMP / DEWPOINT
20 ºC / 10 ºC
ALTIMETER
29.63 in. Hg
RECENT WEATHER
NOT REPORTED
WIND SHEAR
NOT REPORTED
REMARKS
RMK AO2 SLP031
SEA LEVEL PRESSURE: hPa

CYNR

METAR CYNR 181600Z AUTO 20010KT 9SM BKN160 19/10 A2965 RMK AO2 SLP036
METAR
LOCATION
CYNR
DATE - TIME
181600Z
WIND
200 TRUE @ 10 KNOTS
VISIBILITY
9SM
RUNWAY VISUAL RANGE
NOT REPORTED
WEATHER
CLOUDINESS
BKN160
TEMP / DEWPOINT
19 ºC / 10 ºC
ALTIMETER
29.65 in. Hg
RECENT WEATHER
NOT REPORTED
WIND SHEAR
NOT REPORTED
REMARKS
RMK AO2 SLP036
SEA LEVEL PRESSURE: hPa

Your time UTC time
 
 
Weather data provided by AXYS Technologies Inc., www.axystechnologies.com
 
Station History